sensor_id;sensor_type;location;lat;lon;timestamp;pressure;altitude;pressure_sealevel;temperature;humidity
46534;BME280;32260;52.008;4.752;2023-05-21T00:00:12;102045.13;;;17.33;53.19
46534;BME280;32260;52.008;4.752;2023-05-21T00:02:38;102046.84;;;17.35;53.06
46534;BME280;32260;52.008;4.752;2023-05-21T00:05:05;102047.69;;;17.37;52.84
46534;BME280;32260;52.008;4.752;2023-05-21T00:07:36;102045.81;;;17.39;53.22
46534;BME280;32260;52.008;4.752;2023-05-21T00:10:02;102044.91;;;17.40;53.64
46534;BME280;32260;52.008;4.752;2023-05-21T00:12:28;102042.16;;;17.42;53.09
46534;BME280;32260;52.008;4.752;2023-05-21T00:14:54;102034.13;;;17.42;53.26
46534;BME280;32260;52.008;4.752;2023-05-21T00:17:20;102039.47;;;17.43;53.34
46534;BME280;32260;52.008;4.752;2023-05-21T00:19:46;102037.59;;;17.45;52.96
46534;BME280;32260;52.008;4.752;2023-05-21T00:22:15;102034.00;;;17.46;53.00
46534;BME280;32260;52.008;4.752;2023-05-21T00:24:41;102031.31;;;17.46;53.18
46534;BME280;32260;52.008;4.752;2023-05-21T00:27:09;102026.88;;;17.45;53.20
46534;BME280;32260;52.008;4.752;2023-05-21T00:29:36;102031.38;;;17.45;53.18
46534;BME280;32260;52.008;4.752;2023-05-21T00:32:02;102020.59;;;17.46;53.27
46534;BME280;32260;52.008;4.752;2023-05-21T00:34:28;102022.38;;;17.48;53.39
46534;BME280;32260;52.008;4.752;2023-05-21T00:36:54;102024.94;;;17.51;53.66
46534;BME280;32260;52.008;4.752;2023-05-21T00:39:20;102020.41;;;17.53;53.52
46534;BME280;32260;52.008;4.752;2023-05-21T00:41:47;102023.03;;;17.54;53.48
46534;BME280;32260;52.008;4.752;2023-05-21T00:44:13;102015.00;;;17.54;53.81
46534;BME280;32260;52.008;4.752;2023-05-21T00:46:42;102023.03;;;17.56;53.57
46534;BME280;32260;52.008;4.752;2023-05-21T00:49:10;102016.69;;;17.58;53.45
46534;BME280;32260;52.008;4.752;2023-05-21T00:51:36;102014.81;;;17.60;53.34
46534;BME280;32260;52.008;4.752;2023-05-21T00:54:02;102013.84;;;17.63;53.07
46534;BME280;32260;52.008;4.752;2023-05-21T00:56:29;102021.88;;;17.63;53.23
46534;BME280;32260;52.008;4.752;2023-05-21T00:58:56;102010.28;;;17.62;53.85
46534;BME280;32260;52.008;4.752;2023-05-21T01:01:23;102011.16;;;17.63;53.65
46534;BME280;32260;52.008;4.752;2023-05-21T01:03:53;102012.00;;;17.65;53.88
46534;BME280;32260;52.008;4.752;2023-05-21T01:06:22;102004.81;;;17.67;53.63
46534;BME280;32260;52.008;4.752;2023-05-21T01:08:48;102010.97;;;17.69;53.83
46534;BME280;32260;52.008;4.752;2023-05-21T01:11:16;102006.44;;;17.71;53.57
46534;BME280;32260;52.008;4.752;2023-05-21T01:13:44;102001.03;;;17.73;53.82
46534;BME280;32260;52.008;4.752;2023-05-21T01:16:11;101998.34;;;17.73;53.99
46534;BME280;32260;52.008;4.752;2023-05-21T01:18:38;102001.94;;;17.72;54.06
46534;BME280;32260;52.008;4.752;2023-05-21T01:21:05;101997.50;;;17.72;54.07
46534;BME280;32260;52.008;4.752;2023-05-21T01:23:33;101999.25;;;17.73;55.01
46534;BME280;32260;52.008;4.752;2023-05-21T01:25:59;102001.94;;;17.73;54.41
46534;BME280;32260;52.008;4.752;2023-05-21T01:28:25;101996.50;;;17.75;54.23
46534;BME280;32260;52.008;4.752;2023-05-21T01:30:51;101992.94;;;17.74;54.52
46534;BME280;32260;52.008;4.752;2023-05-21T01:33:28;101983.06;;;17.76;54.11
46534;BME280;32260;52.008;4.752;2023-05-21T01:36:17;101988.22;;;17.83;54.00
46534;BME280;32260;52.008;4.752;2023-05-21T01:38:56;101988.41;;;17.76;54.37
46534;BME280;32260;52.008;4.752;2023-05-21T01:41:26;101990.38;;;17.71;54.49
46534;BME280;32260;52.008;4.752;2023-05-21T01:43:56;101999.31;;;17.70;54.57
46534;BME280;32260;52.008;4.752;2023-05-21T01:46:25;101993.97;;;17.70;54.64
46534;BME280;32260;52.008;4.752;2023-05-21T01:48:52;102000.22;;;17.71;54.71
46534;BME280;32260;52.008;4.752;2023-05-21T01:51:20;101998.34;;;17.73;55.00
46534;BME280;32260;52.008;4.752;2023-05-21T01:53:46;101998.34;;;17.73;55.13
46534;BME280;32260;52.008;4.752;2023-05-21T01:56:12;101994.75;;;17.74;54.75
46534;BME280;32260;52.008;4.752;2023-05-21T01:58:40;102000.13;;;17.74;54.83
46534;BME280;32260;52.008;4.752;2023-05-21T02:01:06;101997.38;;;17.75;54.41
46534;BME280;32260;52.008;4.752;2023-05-21T02:03:33;101995.53;;;17.77;54.63
46534;BME280;32260;52.008;4.752;2023-05-21T02:05:59;101994.66;;;17.77;55.21
46534;BME280;32260;52.008;4.752;2023-05-21T02:08:25;101998.22;;;17.77;54.47
46534;BME280;32260;52.008;4.752;2023-05-21T02:10:52;102000.91;;;17.77;54.57
46534;BME280;32260;52.008;4.752;2023-05-21T02:13:18;101996.47;;;17.76;54.79
46534;BME280;32260;52.008;4.752;2023-05-21T02:15:47;101993.72;;;17.78;54.76
46534;BME280;32260;52.008;4.752;2023-05-21T02:18:13;101996.41;;;17.78;54.71
46534;BME280;32260;52.008;4.752;2023-05-21T02:20:41;101990.16;;;17.77;54.47
46534;BME280;32260;52.008;4.752;2023-05-21T02:23:08;101991.16;;;17.75;54.54
46534;BME280;32260;52.008;4.752;2023-05-21T02:25:34;101991.16;;;17.75;54.65
46534;BME280;32260;52.008;4.752;2023-05-21T02:28:00;101992.13;;;17.72;54.62
46534;BME280;32260;52.008;4.752;2023-05-21T02:30:27;101982.28;;;17.73;54.87
46534;BME280;32260;52.008;4.752;2023-05-21T02:32:55;101984.91;;;17.74;54.70
46534;BME280;32260;52.008;4.752;2023-05-21T02:35:23;101984.91;;;17.74;54.71
46534;BME280;32260;52.008;4.752;2023-05-21T02:37:50;101991.22;;;17.73;54.70
46534;BME280;32260;52.008;4.752;2023-05-21T02:40:16;101994.75;;;17.74;54.59
46534;BME280;32260;52.008;4.752;2023-05-21T02:42:42;101988.53;;;17.73;54.71
46534;BME280;32260;52.008;4.752;2023-05-21T02:45:09;101989.44;;;17.72;54.55
46534;BME280;32260;52.008;4.752;2023-05-21T02:47:36;101992.13;;;17.72;54.73
46534;BME280;32260;52.008;4.752;2023-05-21T02:50:04;101991.28;;;17.70;55.13
46534;BME280;32260;52.008;4.752;2023-05-21T02:52:31;101990.44;;;17.70;54.77
46534;BME280;32260;52.008;4.752;2023-05-21T02:54:57;101992.19;;;17.71;54.73
46534;BME280;32260;52.008;4.752;2023-05-21T02:57:23;101992.13;;;17.72;55.11
46534;BME280;32260;52.008;4.752;2023-05-21T02:59:49;101986.75;;;17.72;54.93
46534;BME280;32260;52.008;4.752;2023-05-21T03:02:16;101988.53;;;17.73;55.21
46534;BME280;32260;52.008;4.752;2023-05-21T03:04:42;101986.66;;;17.75;55.04
46534;BME280;32260;52.008;4.752;2023-05-21T03:07:14;101988.41;;;17.76;54.88
46534;BME280;32260;52.008;4.752;2023-05-21T03:09:41;101991.16;;;17.75;54.89
46534;BME280;32260;52.008;4.752;2023-05-21T03:12:08;101985.88;;;17.72;55.23
46534;BME280;32260;52.008;4.752;2023-05-21T03:14:34;101981.41;;;17.72;55.17
46534;BME280;32260;52.008;4.752;2023-05-21T03:17:01;101984.16;;;17.71;54.79
46534;BME280;32260;52.008;4.752;2023-05-21T03:19:31;101984.16;;;17.69;55.08
46534;BME280;32260;52.008;4.752;2023-05-21T03:22:02;101979.72;;;17.68;55.19
46534;BME280;32260;52.008;4.752;2023-05-21T03:24:29;101974.38;;;17.68;54.97
46534;BME280;32260;52.008;4.752;2023-05-21T03:26:58;101976.25;;;17.66;55.32
46534;BME280;32260;52.008;4.752;2023-05-21T03:29:24;101975.31;;;17.67;55.44
46534;BME280;32260;52.008;4.752;2023-05-21T03:31:51;101983.34;;;17.67;54.73
46534;BME280;32260;52.008;4.752;2023-05-21T03:34:19;101978.97;;;17.65;55.20
46534;BME280;32260;52.008;4.752;2023-05-21T03:36:46;101979.84;;;17.65;55.15
46534;BME280;32260;52.008;4.752;2023-05-21T03:39:12;101978.09;;;17.64;55.17
46534;BME280;32260;52.008;4.752;2023-05-21T03:41:38;101975.47;;;17.62;55.35
46534;BME280;32260;52.008;4.752;2023-05-21T03:44:05;101976.38;;;17.61;55.27
46534;BME280;32260;52.008;4.752;2023-05-21T03:46:31;101980.88;;;17.61;55.52
46534;BME280;32260;52.008;4.752;2023-05-21T03:48:58;101972.84;;;17.61;55.31
46534;BME280;32260;52.008;4.752;2023-05-21T03:51:24;101981.78;;;17.60;55.30
46534;BME280;32260;52.008;4.752;2023-05-21T03:53:53;101976.38;;;17.61;55.23
46534;BME280;32260;52.008;4.752;2023-05-21T03:56:19;101978.28;;;17.58;55.27
46534;BME280;32260;52.008;4.752;2023-05-21T03:58:46;101980.94;;;17.58;55.14
46534;BME280;32260;52.008;4.752;2023-05-21T04:01:12;101984.56;;;17.57;55.31
46534;BME280;32260;52.008;4.752;2023-05-21T04:03:38;101970.22;;;17.58;55.11
46534;BME280;32260;52.008;4.752;2023-05-21T04:06:04;101970.28;;;17.56;55.09
46534;BME280;32260;52.008;4.752;2023-05-21T04:08:31;101968.53;;;17.55;55.49
46534;BME280;32260;52.008;4.752;2023-05-21T04:10:57;101965.91;;;17.54;55.41
46534;BME280;32260;52.008;4.752;2023-05-21T04:13:23;101970.38;;;17.53;55.43
46534;BME280;32260;52.008;4.752;2023-05-21T04:15:50;101966.81;;;17.53;55.32
46534;BME280;32260;52.008;4.752;2023-05-21T04:18:16;101969.50;;;17.53;55.34
46534;BME280;32260;52.008;4.752;2023-05-21T04:20:42;101969.50;;;17.53;55.23
46534;BME280;32260;52.008;4.752;2023-05-21T04:23:09;101972.19;;;17.53;55.31
46534;BME280;32260;52.008;4.752;2023-05-21T04:25:35;101969.50;;;17.53;55.66
46534;BME280;32260;52.008;4.752;2023-05-21T04:28:03;101973.09;;;17.52;55.80
46534;BME280;32260;52.008;4.752;2023-05-21T04:30:29;101974.88;;;17.53;55.43
46534;BME280;32260;52.008;4.752;2023-05-21T04:32:55;101972.13;;;17.54;55.55
46534;BME280;32260;52.008;4.752;2023-05-21T04:35:22;101973.03;;;17.55;55.80
46534;BME280;32260;52.008;4.752;2023-05-21T04:37:48;101976.50;;;17.57;55.59
46534;BME280;32260;52.008;4.752;2023-05-21T04:40:15;101976.63;;;17.54;55.66
46534;BME280;32260;52.008;4.752;2023-05-21T04:42:44;101972.13;;;17.54;55.71
46534;BME280;32260;52.008;4.752;2023-05-21T04:45:11;101975.69;;;17.55;55.66
46534;BME280;32260;52.008;4.752;2023-05-21T04:47:37;101971.22;;;17.55;55.94
46534;BME280;32260;52.008;4.752;2023-05-21T04:50:04;101971.16;;;17.57;55.86
46534;BME280;32260;52.008;4.752;2023-05-21T04:52:31;101970.97;;;17.63;55.86
46534;BME280;32260;52.008;4.752;2023-05-21T04:54:57;101972.84;;;17.61;55.81
46534;BME280;32260;52.008;4.752;2023-05-21T04:57:23;101969.22;;;17.62;56.21
46534;BME280;32260;52.008;4.752;2023-05-21T04:59:49;101976.25;;;17.66;56.25
46534;BME280;32260;52.008;4.752;2023-05-21T05:02:16;101970.75;;;17.69;56.02
46534;BME280;32260;52.008;4.752;2023-05-21T05:04:42;101967.81;;;17.78;55.88
46534;BME280;32260;52.008;4.752;2023-05-21T05:07:09;101975.72;;;17.82;55.84
46534;BME280;32260;52.008;4.752;2023-05-21T05:09:35;101974.88;;;17.81;55.93
46534;BME280;32260;52.008;4.752;2023-05-21T05:12:01;101974.81;;;17.83;56.35
46534;BME280;32260;52.008;4.752;2023-05-21T05:14:27;101969.50;;;17.81;56.48
46534;BME280;32260;52.008;4.752;2023-05-21T05:16:53;101971.28;;;17.81;57.19
46534;BME280;32260;52.008;4.752;2023-05-21T05:19:25;101973.91;;;17.84;56.28
46534;BME280;32260;52.008;4.752;2023-05-21T05:21:51;101967.66;;;17.83;56.86
46534;BME280;32260;52.008;4.752;2023-05-21T05:24:17;101979.13;;;17.87;56.81
46534;BME280;32260;52.008;4.752;2023-05-21T05:26:43;101966.56;;;17.89;56.68
46534;BME280;32260;52.008;4.752;2023-05-21T05:29:10;101959.38;;;17.91;56.39
46534;BME280;32260;52.008;4.752;2023-05-21T05:31:36;101969.16;;;17.92;56.70
46534;BME280;32260;52.008;4.752;2023-05-21T05:34:02;101964.66;;;17.92;56.87
46534;BME280;32260;52.008;4.752;2023-05-21T05:36:29;101964.66;;;17.94;57.14
46534;BME280;32260;52.008;4.752;2023-05-21T05:38:56;101963.66;;;17.97;56.74
46534;BME280;32260;52.008;4.752;2023-05-21T05:41:22;101957.31;;;17.99;57.01
46534;BME280;32260;52.008;4.752;2023-05-21T05:43:48;101959.00;;;18.03;57.36
46534;BME280;32260;52.008;4.752;2023-05-21T05:46:14;101946.31;;;18.08;56.82
46534;BME280;32260;52.008;4.752;2023-05-21T05:48:40;101951.59;;;18.10;57.91
46534;BME280;32260;52.008;4.752;2023-05-21T05:51:06;101949.63;;;18.15;57.27
46534;BME280;32260;52.008;4.752;2023-05-21T05:53:33;101943.22;;;18.19;57.24
46534;BME280;32260;52.008;4.752;2023-05-21T05:55:59;101947.53;;;18.25;56.91
46534;BME280;32260;52.008;4.752;2023-05-21T05:58:25;101946.47;;;18.29;56.92
46534;BME280;32260;52.008;4.752;2023-05-21T06:00:51;101952.56;;;18.34;57.27
46534;BME280;32260;52.008;4.752;2023-05-21T06:03:17;101948.84;;;18.38;57.21
46534;BME280;32260;52.008;4.752;2023-05-21T06:05:43;101953.09;;;18.44;57.10
46534;BME280;32260;52.008;4.752;2023-05-21T06:08:09;101951.16;;;18.49;57.06
46534;BME280;32260;52.008;4.752;2023-05-21T06:10:35;101952.66;;;18.56;57.29
46534;BME280;32260;52.008;4.752;2023-05-21T06:13:02;101959.56;;;18.64;57.15
46534;BME280;32260;52.008;4.752;2023-05-21T06:15:28;101951.38;;;18.68;57.20
46534;BME280;32260;52.008;4.752;2023-05-21T06:17:55;101949.38;;;18.73;57.05
46534;BME280;32260;52.008;4.752;2023-05-21T06:20:21;101942.94;;;18.79;57.08
46534;BME280;32260;52.008;4.752;2023-05-21T06:22:47;101951.69;;;18.84;56.84
46534;BME280;32260;52.008;4.752;2023-05-21T06:25:13;101958.63;;;18.90;57.12
46534;BME280;32260;52.008;4.752;2023-05-21T06:27:40;101949.56;;;18.94;56.83
46534;BME280;32260;52.008;4.752;2023-05-21T06:30:07;101953.06;;;18.96;57.11
46534;BME280;32260;52.008;4.752;2023-05-21T06:32:33;101953.75;;;19.01;56.87
46534;BME280;32260;52.008;4.752;2023-05-21T06:34:59;101955.50;;;19.02;56.75
46534;BME280;32260;52.008;4.752;2023-05-21T06:37:26;101964.31;;;19.06;57.29
46534;BME280;32260;52.008;4.752;2023-05-21T06:39:52;101961.53;;;19.09;57.05
46534;BME280;32260;52.008;4.752;2023-05-21T06:42:18;101960.53;;;19.12;57.24
46534;BME280;32260;52.008;4.752;2023-05-21T06:44:44;101956.78;;;19.16;57.33
46534;BME280;32260;52.008;4.752;2023-05-21T06:47:10;101958.19;;;19.26;57.23
46534;BME280;32260;52.008;4.752;2023-05-21T06:49:36;101956.88;;;19.36;57.20
46534;BME280;32260;52.008;4.752;2023-05-21T06:52:03;101955.66;;;19.45;56.85
46534;BME280;32260;52.008;4.752;2023-05-21T06:54:29;101950.09;;;19.50;57.10
46534;BME280;32260;52.008;4.752;2023-05-21T06:56:55;101948.09;;;19.55;56.86
46534;BME280;32260;52.008;4.752;2023-05-21T06:59:21;101947.84;;;19.61;56.70
46534;BME280;32260;52.008;4.752;2023-05-21T07:01:47;101945.97;;;19.63;56.80
46534;BME280;32260;52.008;4.752;2023-05-21T07:04:13;101958.25;;;19.70;56.69
46534;BME280;32260;52.008;4.752;2023-05-21T07:06:39;101961.47;;;19.79;56.48
46534;BME280;32260;52.008;4.752;2023-05-21T07:09:05;101960.47;;;19.83;56.46
46534;BME280;32260;52.008;4.752;2023-05-21T07:11:32;101963.06;;;19.84;56.45
46534;BME280;32260;52.008;4.752;2023-05-21T07:13:59;101963.94;;;19.85;56.64
46534;BME280;32260;52.008;4.752;2023-05-21T07:16:25;101957.38;;;19.92;56.32
46534;BME280;32260;52.008;4.752;2023-05-21T07:18:55;101958.88;;;19.99;56.09
46534;BME280;32260;52.008;4.752;2023-05-21T07:21:21;101964.06;;;20.04;56.05
46534;BME280;32260;52.008;4.752;2023-05-21T07:23:47;101966.50;;;20.10;55.92
46534;BME280;32260;52.008;4.752;2023-05-21T07:26:13;101960.91;;;20.15;56.00
46534;BME280;32260;52.008;4.752;2023-05-21T07:28:39;101959.09;;;20.15;55.50
46534;BME280;32260;52.008;4.752;2023-05-21T07:31:05;101959.03;;;20.17;55.65
46534;BME280;32260;52.008;4.752;2023-05-21T07:33:31;101967.00;;;20.20;55.34
46534;BME280;32260;52.008;4.752;2023-05-21T07:35:57;101961.34;;;20.26;55.44
46534;BME280;32260;52.008;4.752;2023-05-21T07:38:23;101961.13;;;20.31;55.23
46534;BME280;32260;52.008;4.752;2023-05-21T07:40:49;101964.56;;;20.34;55.23
46534;BME280;32260;52.008;4.752;2023-05-21T07:43:15;101962.81;;;20.33;54.96
46534;BME280;32260;52.008;4.752;2023-05-21T07:45:42;101960.00;;;20.36;54.96
46534;BME280;32260;52.008;4.752;2023-05-21T07:48:08;101964.44;;;20.38;55.08
46534;BME280;32260;52.008;4.752;2023-05-21T07:50:34;101962.63;;;20.38;54.99
46534;BME280;32260;52.008;4.752;2023-05-21T07:53:00;101951.78;;;20.40;54.97
46534;BME280;32260;52.008;4.752;2023-05-21T07:55:26;101944.09;;;20.51;55.02
46534;BME280;32260;52.008;4.752;2023-05-21T07:57:52;101946.47;;;20.59;54.66
46534;BME280;32260;52.008;4.752;2023-05-21T08:00:21;101942.50;;;20.67;54.54
46534;BME280;32260;52.008;4.752;2023-05-21T08:02:47;101937.72;;;20.74;54.40
46534;BME280;32260;52.008;4.752;2023-05-21T08:05:14;101942.75;;;20.82;54.05
46534;BME280;32260;52.008;4.752;2023-05-21T08:07:41;101932.63;;;20.87;54.00
46534;BME280;32260;52.008;4.752;2023-05-21T08:10:07;101935.00;;;20.95;54.15
46534;BME280;32260;52.008;4.752;2023-05-21T08:12:34;101942.72;;;21.03;53.98
46534;BME280;32260;52.008;4.752;2023-05-21T08:15:00;101942.34;;;21.10;53.60
46534;BME280;32260;52.008;4.752;2023-05-21T08:17:26;101941.31;;;21.13;53.18
46534;BME280;32260;52.008;4.752;2023-05-21T08:19:53;101942.91;;;21.17;53.27
46534;BME280;32260;52.008;4.752;2023-05-21T08:22:19;101943.44;;;21.25;53.17
46534;BME280;32260;52.008;4.752;2023-05-21T08:24:45;101940.28;;;21.34;53.00
46534;BME280;32260;52.008;4.752;2023-05-21T08:27:13;101944.31;;;21.45;53.09
46534;BME280;32260;52.008;4.752;2023-05-21T08:29:41;101950.09;;;21.56;52.89
46534;BME280;32260;52.008;4.752;2023-05-21T08:32:07;101948.69;;;21.67;52.57
46534;BME280;32260;52.008;4.752;2023-05-21T08:34:34;101944.94;;;21.69;52.27
46534;BME280;32260;52.008;4.752;2023-05-21T08:37:01;101945.69;;;21.73;52.44
46534;BME280;32260;52.008;4.752;2023-05-21T08:39:27;101937.16;;;21.82;52.53
46534;BME280;32260;52.008;4.752;2023-05-21T08:42:03;101939.78;;;22.01;52.49
46534;BME280;32260;52.008;4.752;2023-05-21T08:44:32;101932.09;;;22.11;51.75
46534;BME280;32260;52.008;4.752;2023-05-21T08:47:01;101935.56;;;22.13;51.40
46534;BME280;32260;52.008;4.752;2023-05-21T08:49:31;101936.53;;;22.12;51.29
46534;BME280;32260;52.008;4.752;2023-05-21T08:51:59;101934.78;;;22.11;51.55
46534;BME280;32260;52.008;4.752;2023-05-21T08:54:26;101932.09;;;22.11;51.56
46534;BME280;32260;52.008;4.752;2023-05-21T08:56:52;101937.41;;;22.12;51.53
46534;BME280;32260;52.008;4.752;2023-05-21T08:59:20;101930.09;;;22.14;51.25
46534;BME280;32260;52.008;4.752;2023-05-21T09:01:48;101933.88;;;22.10;51.05
46534;BME280;32260;52.008;4.752;2023-05-21T09:04:15;101927.53;;;22.11;51.33
46534;BME280;32260;52.008;4.752;2023-05-21T09:06:41;101921.91;;;22.16;51.26
46534;BME280;32260;52.008;4.752;2023-05-21T09:09:19;101923.19;;;22.26;51.02
46534;BME280;32260;52.008;4.752;2023-05-21T09:11:49;101918.59;;;22.28;50.85
46534;BME280;32260;52.008;4.752;2023-05-21T09:14:16;101931.47;;;22.41;50.83
46534;BME280;32260;52.008;4.752;2023-05-21T09:16:45;101918.41;;;22.49;50.19
46534;BME280;32260;52.008;4.752;2023-05-21T09:19:13;101915.31;;;22.57;50.02
46534;BME280;32260;52.008;4.752;2023-05-21T09:21:39;101914.09;;;22.62;49.98
46534;BME280;32260;52.008;4.752;2023-05-21T09:24:06;101904.72;;;22.70;49.67
46534;BME280;32260;52.008;4.752;2023-05-21T09:26:34;101922.34;;;22.77;49.71
46534;BME280;32260;52.008;4.752;2023-05-21T09:29:00;101918.59;;;22.80;49.09
46534;BME280;32260;52.008;4.752;2023-05-21T09:31:26;101908.03;;;22.75;49.09
46534;BME280;32260;52.008;4.752;2023-05-21T09:33:54;101912.97;;;22.67;48.84
46534;BME280;32260;52.008;4.752;2023-05-21T09:36:21;101914.75;;;22.50;48.97
46534;BME280;32260;52.008;4.752;2023-05-21T09:38:48;101911.28;;;22.48;49.36
46534;BME280;32260;52.008;4.752;2023-05-21T09:41:17;101903.97;;;22.50;49.02
46534;BME280;32260;52.008;4.752;2023-05-21T09:43:43;101910.06;;;22.54;49.36
46534;BME280;32260;52.008;4.752;2023-05-21T09:46:10;101907.28;;;22.55;49.36
46534;BME280;32260;52.008;4.752;2023-05-21T09:48:39;101912.88;;;22.52;49.24
46534;BME280;32260;52.008;4.752;2023-05-21T09:51:16;101908.41;;;22.51;49.08
46534;BME280;32260;52.008;4.752;2023-05-21T09:53:58;101897.00;;;22.46;49.55
46534;BME280;32260;52.008;4.752;2023-05-21T09:56:26;101904.06;;;22.49;50.63
46534;BME280;32260;52.008;4.752;2023-05-21T09:58:56;101896.34;;;22.58;49.53
46534;BME280;32260;52.008;4.752;2023-05-21T10:01:24;101893.22;;;22.66;49.50
46534;BME280;32260;52.008;4.752;2023-05-21T10:03:54;101909.09;;;22.72;49.44
46534;BME280;32260;52.008;4.752;2023-05-21T10:06:27;101902.63;;;22.75;49.25
46534;BME280;32260;52.008;4.752;2023-05-21T10:08:56;101902.47;;;22.78;49.12
46534;BME280;32260;52.008;4.752;2023-05-21T10:11:26;101898.97;;;22.76;49.42
46534;BME280;32260;52.008;4.752;2023-05-21T10:14:24;101899.69;;;22.80;49.30
46534;BME280;32260;52.008;4.752;2023-05-21T10:16:46;101887.84;;;22.82;49.10
46534;BME280;32260;52.008;4.752;2023-05-21T10:19:14;101889.25;;;22.89;49.16
46534;BME280;32260;52.008;4.752;2023-05-21T10:21:41;101882.81;;;22.92;49.26
46534;BME280;32260;52.008;4.752;2023-05-21T10:24:08;101889.69;;;22.98;49.42
46534;BME280;32260;52.008;4.752;2023-05-21T10:26:35;101894.94;;;23.01;49.27
46534;BME280;32260;52.008;4.752;2023-05-21T10:29:04;101886.47;;;23.07;48.45
46534;BME280;32260;52.008;4.752;2023-05-21T10:31:31;101887.72;;;23.17;48.95
46534;BME280;32260;52.008;4.752;2023-05-21T10:33:59;101883.72;;;23.24;48.34
46534;BME280;32260;52.008;4.752;2023-05-21T10:36:29;101888.06;;;23.27;47.98
46534;BME280;32260;52.008;4.752;2023-05-21T10:39:00;101885.00;;;23.33;48.22
46534;BME280;32260;52.008;4.752;2023-05-21T10:41:27;101874.91;;;23.37;48.04
46534;BME280;32260;52.008;4.752;2023-05-21T10:55:44;101877.22;;;23.59;47.91
46534;BME280;32260;52.008;4.752;2023-05-21T11:01:03;101864.47;;;23.61;47.62
46534;BME280;32260;52.008;4.752;2023-05-21T11:03:31;101871.16;;;23.70;47.68
46534;BME280;32260;52.008;4.752;2023-05-21T11:05:58;101859.28;;;23.72;46.67
46534;BME280;32260;52.008;4.752;2023-05-21T11:08:29;101844.31;;;23.81;47.23
46534;BME280;32260;52.008;4.752;2023-05-21T11:10:57;101851.47;;;23.82;47.12
46534;BME280;32260;52.008;4.752;2023-05-21T11:13:25;101848.03;;;23.80;46.87
46534;BME280;32260;52.008;4.752;2023-05-21T11:21:13;101848.78;;;23.82;47.17
46534;BME280;32260;52.008;4.752;2023-05-21T11:24:00;101844.19;;;23.99;47.14
46534;BME280;32260;52.008;4.752;2023-05-21T11:27:01;101837.28;;;24.09;47.18
46534;BME280;32260;52.008;4.752;2023-05-21T11:29:17;101842.00;;;24.20;46.76
46534;BME280;32260;52.008;4.752;2023-05-21T11:31:46;101835.34;;;24.26;46.50
46534;BME280;32260;52.008;4.752;2023-05-21T11:34:21;101831.09;;;24.36;46.46
46534;BME280;32260;52.008;4.752;2023-05-21T11:39:53;101817.00;;;24.45;46.41
46534;BME280;32260;52.008;4.752;2023-05-21T11:42:38;101840.03;;;24.52;46.43
46534;BME280;32260;52.008;4.752;2023-05-21T11:45:07;101832.34;;;24.45;46.40
46534;BME280;32260;52.008;4.752;2023-05-21T11:47:33;101827.31;;;24.38;46.11
46534;BME280;32260;52.008;4.752;2023-05-21T11:50:01;101815.81;;;24.35;46.10
46534;BME280;32260;52.008;4.752;2023-05-21T11:52:28;101817.25;;;24.26;46.02
46534;BME280;32260;52.008;4.752;2023-05-21T11:54:56;101816.78;;;24.19;46.22
46534;BME280;32260;52.008;4.752;2023-05-21T11:57:26;101817.94;;;24.15;45.87
46534;BME280;32260;52.008;4.752;2023-05-21T11:59:56;101820.66;;;24.15;46.24
46534;BME280;32260;52.008;4.752;2023-05-21T12:02:25;101821.34;;;24.19;46.26
46534;BME280;32260;52.008;4.752;2023-05-21T12:04:53;101809.25;;;24.25;46.14
46534;BME280;32260;52.008;4.752;2023-05-21T12:07:19;101808.19;;;24.27;46.17
46534;BME280;32260;52.008;4.752;2023-05-21T12:09:47;101817.75;;;24.33;45.93
46534;BME280;32260;52.008;4.752;2023-05-21T12:12:16;101813.72;;;24.40;46.24
46534;BME280;32260;52.008;4.752;2023-05-21T12:14:44;101803.22;;;24.48;45.96
46534;BME280;32260;52.008;4.752;2023-05-21T12:17:18;101806.06;;;24.47;45.92
46534;BME280;32260;52.008;4.752;2023-05-21T12:19:45;101806.72;;;24.36;45.50
46534;BME280;32260;52.008;4.752;2023-05-21T12:22:12;101806.72;;;24.36;46.21
46534;BME280;32260;52.008;4.752;2023-05-21T12:24:40;101792.03;;;24.40;45.85
46534;BME280;32260;52.008;4.752;2023-05-21T12:27:08;101804.03;;;24.50;45.61
46534;BME280;32260;52.008;4.752;2023-05-21T12:29:38;101802.75;;;24.56;45.55
46534;BME280;32260;52.008;4.752;2023-05-21T12:32:08;101808.47;;;24.51;45.20
46534;BME280;32260;52.008;4.752;2023-05-21T12:39:58;101802.75;;;24.56;45.58
46534;BME280;32260;52.008;4.752;2023-05-21T12:42:28;101802.66;;;24.72;45.29
46534;BME280;32260;52.008;4.752;2023-05-21T12:44:56;101811.44;;;24.90;45.66
46534;BME280;32260;52.008;4.752;2023-05-21T12:47:26;101799.38;;;25.09;45.11
46534;BME280;32260;52.008;4.752;2023-05-21T12:49:56;101788.38;;;25.25;45.05
46534;BME280;32260;52.008;4.752;2023-05-21T12:52:23;101800.34;;;25.35;44.56
46534;BME280;32260;52.008;4.752;2023-05-21T12:54:55;101792.16;;;25.49;44.35
46534;BME280;32260;52.008;4.752;2023-05-21T12:57:25;101787.94;;;25.58;43.98
46534;BME280;32260;52.008;4.752;2023-05-21T12:59:55;101781.78;;;25.69;43.96
46534;BME280;32260;52.008;4.752;2023-05-21T13:04:58;101779.19;;;25.93;43.83
46534;BME280;32260;52.008;4.752;2023-05-21T13:07:27;101777.28;;;26.08;43.59
46534;BME280;32260;52.008;4.752;2023-05-21T13:09:53;101782.81;;;26.20;42.54
46534;BME280;32260;52.008;4.752;2023-05-21T13:12:22;101790.53;;;26.26;42.35
46534;BME280;32260;52.008;4.752;2023-05-21T13:14:51;101787.44;;;26.30;42.72
46534;BME280;32260;52.008;4.752;2023-05-21T13:17:18;101794.00;;;26.15;42.76
46534;BME280;32260;52.008;4.752;2023-05-21T13:20:11;101783.44;;;25.97;42.96
46534;BME280;32260;52.008;4.752;2023-05-21T13:22:39;101791.16;;;25.91;43.06